createdAt,value
2016-11-03T00:00:19.410Z,1008.84
2016-11-03T00:01:00.045Z,1008.85
2016-11-03T00:01:40.737Z,1008.87
2016-11-03T00:02:21.424Z,1008.88
2016-11-03T00:03:02.120Z,1008.87
2016-11-03T00:03:42.778Z,1008.85
2016-11-03T00:04:23.511Z,1008.85
2016-11-03T00:05:04.189Z,1008.85
2016-11-03T00:05:45.740Z,1008.89
2016-11-03T00:06:25.571Z,1008.9
2016-11-03T00:07:06.252Z,1008.88
2016-11-03T00:07:46.901Z,1008.85
2016-11-03T00:08:27.532Z,1008.86
2016-11-03T00:09:08.211Z,1008.85
2016-11-03T00:09:48.839Z,1008.86
2016-11-03T00:10:29.518Z,1008.83
2016-11-03T00:11:10.180Z,1008.82
2016-11-03T00:11:50.902Z,1008.81
2016-11-03T00:12:31.567Z,1008.82
2016-11-03T00:13:12.247Z,1008.81
2016-11-03T00:13:52.934Z,1008.78
2016-11-03T00:14:33.603Z,1008.83
2016-11-03T00:15:14.297Z,1008.8
2016-11-03T00:15:54.986Z,1008.8
2016-11-03T00:16:35.621Z,1008.77
2016-11-03T00:17:16.306Z,1008.76
2016-11-03T00:17:56.976Z,1008.77
2016-11-03T00:18:37.689Z,1008.79
2016-11-03T00:19:18.345Z,1008.76
2016-11-03T00:19:59.069Z,1008.8
2016-11-03T00:20:39.730Z,1008.8
2016-11-03T00:21:20.397Z,1008.76
2016-11-03T00:22:01.102Z,1008.75
2016-11-03T00:22:41.775Z,1008.77
2016-11-03T00:23:22.400Z,1008.79
2016-11-03T00:24:03.075Z,1008.72
2016-11-03T00:24:43.771Z,1008.7
2016-11-03T00:25:24.470Z,1008.75
2016-11-03T00:26:05.179Z,1008.73
2016-11-03T00:26:46.763Z,1008.7
2016-11-03T00:27:27.479Z,1008.7
2016-11-03T00:28:08.114Z,1008.68
2016-11-03T00:28:48.790Z,1008.7
2016-11-03T00:29:29.453Z,1008.66
2016-11-03T00:30:10.124Z,1008.68
2016-11-03T00:30:50.763Z,1008.71
2016-11-03T00:31:32.163Z,1008.67
2016-11-03T00:32:12.810Z,1008.7
2016-11-03T00:32:53.505Z,1008.71
2016-11-03T00:33:34.176Z,1008.72
2016-11-03T00:34:14.907Z,1008.73
2016-11-03T00:34:55.611Z,1008.7
2016-11-03T00:35:36.322Z,1008.72
2016-11-03T00:36:17.027Z,1008.71
2016-11-03T00:36:57.683Z,1008.71
2016-11-03T00:37:38.377Z,1008.75
2016-11-03T00:38:19.082Z,1008.71
2016-11-03T00:38:59.773Z,1008.71
2016-11-03T00:39:40.464Z,1008.7
2016-11-03T00:40:21.088Z,1008.68
2016-11-03T00:41:01.737Z,1008.7
2016-11-03T00:41:42.416Z,1008.7
2016-11-03T00:42:23.069Z,1008.69
2016-11-03T00:43:03.765Z,1008.65
2016-11-03T00:43:44.424Z,1008.66
2016-11-03T00:44:25.134Z,1008.67
2016-11-03T00:45:05.839Z,1008.69
2016-11-03T00:45:46.544Z,1008.63
2016-11-03T00:46:27.208Z,1008.65
2016-11-03T00:47:07.842Z,1008.65
2016-11-03T00:47:48.507Z,1008.65
2016-11-03T00:48:29.207Z,1008.63
2016-11-03T00:49:09.896Z,1008.63
2016-11-03T00:49:50.623Z,1008.63
2016-11-03T00:50:31.243Z,1008.63
2016-11-03T00:51:11.963Z,1008.61
2016-11-03T00:51:52.664Z,1008.62
2016-11-03T00:52:33.305Z,1008.58
2016-11-03T00:53:13.990Z,1008.57
2016-11-03T00:53:54.645Z,1008.58
2016-11-03T00:54:35.332Z,1008.54
2016-11-03T00:55:16.020Z,1008.56
2016-11-03T00:55:56.705Z,1008.57
2016-11-03T00:56:37.451Z,1008.54
2016-11-03T00:57:18.118Z,1008.55
2016-11-03T00:57:58.807Z,1008.55
2016-11-03T00:58:39.460Z,1008.52
2016-11-03T00:59:20.121Z,1008.53
2016-11-03T01:00:00.802Z,1008.53
2016-11-03T01:00:41.446Z,1008.55
2016-11-03T01:01:22.149Z,1008.55
2016-11-03T01:02:02.788Z,1008.58
2016-11-03T01:02:43.432Z,1008.6
2016-11-03T01:03:24.143Z,1008.6
2016-11-03T01:04:04.769Z,1008.58
2016-11-03T01:04:45.475Z,1008.56
2016-11-03T01:05:26.179Z,1008.57
2016-11-03T01:06:06.853Z,1008.62
2016-11-03T01:06:47.509Z,1008.6
2016-11-03T01:07:28.199Z,1008.62
2016-11-03T01:08:08.874Z,1008.61
2016-11-03T01:08:49.544Z,1008.63
2016-11-03T01:09:30.179Z,1008.62
2016-11-03T01:10:10.849Z,1008.6
2016-11-03T01:10:51.525Z,1008.6
2016-11-03T01:11:32.183Z,1008.6
2016-11-03T01:12:12.841Z,1008.59
2016-11-03T01:12:53.496Z,1008.58
2016-11-03T01:13:34.186Z,1008.57
2016-11-03T01:14:14.850Z,1008.6
2016-11-03T01:14:55.533Z,1008.59
2016-11-03T01:15:36.207Z,1008.61
2016-11-03T01:16:16.905Z,1008.58
2016-11-03T01:16:57.580Z,1008.6
2016-11-03T01:17:38.302Z,1008.58
2016-11-03T01:18:19.014Z,1008.59
2016-11-03T01:18:59.697Z,1008.57
2016-11-03T01:19:40.362Z,1008.59
2016-11-03T01:20:21.061Z,1008.56
2016-11-03T01:21:01.789Z,1008.58
2016-11-03T01:21:42.481Z,1008.6
2016-11-03T01:22:23.180Z,1008.57
2016-11-03T01:23:03.826Z,1008.59
2016-11-03T01:23:44.477Z,1008.61
2016-11-03T01:24:25.133Z,1008.59
2016-11-03T01:25:05.762Z,1008.59
2016-11-03T01:25:46.390Z,1008.59
2016-11-03T01:26:27.035Z,1008.63
2016-11-03T01:27:07.680Z,1008.61
2016-11-03T01:27:48.317Z,1008.65
2016-11-03T01:28:28.943Z,1008.63
2016-11-03T01:29:09.569Z,1008.6
2016-11-03T01:29:50.193Z,1008.63
2016-11-03T01:30:30.832Z,1008.61
2016-11-03T01:31:11.464Z,1008.63
2016-11-03T01:31:52.087Z,1008.64
2016-11-03T01:32:32.738Z,1008.66
2016-11-03T01:33:13.434Z,1008.65
2016-11-03T01:33:54.120Z,1008.64
2016-11-03T01:34:34.814Z,1008.64
2016-11-03T01:35:15.487Z,1008.64
2016-11-03T01:35:56.210Z,1008.65
2016-11-03T01:36:36.873Z,1008.6
2016-11-03T01:37:17.517Z,1008.6
2016-11-03T01:37:58.201Z,1008.61
2016-11-03T01:38:38.887Z,1008.6
2016-11-03T01:39:19.568Z,1008.61
2016-11-03T01:40:00.270Z,1008.59
2016-11-03T01:40:40.968Z,1008.61
2016-11-03T01:41:21.680Z,1008.61
2016-11-03T01:42:02.308Z,1008.59
2016-11-03T01:42:43.043Z,1008.56
2016-11-03T01:43:23.713Z,1008.53
2016-11-03T01:44:04.423Z,1008.52
2016-11-03T01:44:45.137Z,1008.52
2016-11-03T01:45:25.777Z,1008.52
2016-11-03T01:46:06.482Z,1008.47
2016-11-03T01:46:47.165Z,1008.46
2016-11-03T01:47:27.851Z,1008.5
2016-11-03T01:48:08.517Z,1008.49
2016-11-03T01:48:49.243Z,1008.46
2016-11-03T01:49:29.983Z,1008.5
2016-11-03T01:50:10.655Z,1008.53
2016-11-03T01:50:51.351Z,1008.49
2016-11-03T01:51:32.069Z,1008.47
2016-11-03T01:52:12.786Z,1008.45
2016-11-03T01:52:53.481Z,1008.43
2016-11-03T01:53:34.163Z,1008.44
2016-11-03T01:54:14.872Z,1008.38
2016-11-03T01:54:55.569Z,1008.42
2016-11-03T01:55:36.235Z,1008.36
2016-11-03T01:56:16.950Z,1008.36
2016-11-03T01:56:57.682Z,1008.33
2016-11-03T01:57:38.364Z,1008.37
2016-11-03T01:58:19.092Z,1008.28
2016-11-03T01:58:59.719Z,1008.3
2016-11-03T01:59:40.425Z,1008.25
2016-11-03T02:00:21.127Z,1008.24
2016-11-03T02:01:01.794Z,1008.21
2016-11-03T02:01:42.511Z,1008.23
2016-11-03T02:02:23.195Z,1008.21
2016-11-03T02:03:03.881Z,1008.2
2016-11-03T02:03:44.534Z,1008.19
2016-11-03T02:04:25.184Z,1008.18
2016-11-03T02:05:05.868Z,1008.17
2016-11-03T02:05:46.525Z,1008.22
2016-11-03T02:06:27.230Z,1008.21
2016-11-03T02:07:07.881Z,1008.19
2016-11-03T02:07:48.553Z,1008.21
2016-11-03T02:08:29.279Z,1008.24
2016-11-03T02:09:09.962Z,1008.22
2016-11-03T02:09:50.613Z,1008.26
2016-11-03T02:10:31.315Z,1008.25
2016-11-03T02:11:11.998Z,1008.28
2016-11-03T02:11:52.701Z,1008.26
2016-11-03T02:12:33.379Z,1008.29
2016-11-03T02:13:14.056Z,1008.28
2016-11-03T02:13:54.749Z,1008.25
2016-11-03T02:14:35.437Z,1008.26
2016-11-03T02:15:16.124Z,1008.3
2016-11-03T02:15:56.815Z,1008.28
2016-11-03T02:16:37.471Z,1008.25
2016-11-03T02:17:18.161Z,1008.23
2016-11-03T02:17:58.855Z,1008.27
2016-11-03T02:18:39.573Z,1008.24
2016-11-03T02:19:20.273Z,1008.24
2016-11-03T02:20:00.952Z,1008.27
2016-11-03T02:20:41.625Z,1008.24
2016-11-03T02:21:22.385Z,1008.26
2016-11-03T02:22:03.052Z,1008.22
2016-11-03T02:22:43.685Z,1008.2
2016-11-03T02:23:24.377Z,1008.23
2016-11-03T02:24:05.067Z,1008.23
2016-11-03T02:24:45.757Z,1008.25
2016-11-03T02:25:26.412Z,1008.2
2016-11-03T02:26:07.126Z,1008.23
2016-11-03T02:26:47.815Z,1008.22
2016-11-03T02:27:28.524Z,1008.21
2016-11-03T02:28:09.216Z,1008.21
2016-11-03T02:28:49.939Z,1008.22
2016-11-03T02:29:30.649Z,1008.21
2016-11-03T02:30:11.310Z,1008.22
2016-11-03T02:30:51.988Z,1008.2
2016-11-03T02:31:32.699Z,1008.2
2016-11-03T02:32:13.376Z,1008.16
2016-11-03T02:32:54.024Z,1008.19
2016-11-03T02:33:34.706Z,1008.18
2016-11-03T02:34:15.379Z,1008.15
2016-11-03T02:34:56.066Z,1008.2
2016-11-03T02:35:36.788Z,1008.18
2016-11-03T02:36:17.423Z,1008.18
2016-11-03T02:36:58.107Z,1008.2
2016-11-03T02:37:38.825Z,1008.15
2016-11-03T02:38:19.497Z,1008.17
2016-11-03T02:39:00.217Z,1008.18
2016-11-03T02:39:40.914Z,1008.15
2016-11-03T02:40:21.625Z,1008.16
2016-11-03T02:41:02.359Z,1008.17
2016-11-03T02:41:43.055Z,1008.16
2016-11-03T02:42:23.712Z,1008.15
2016-11-03T02:43:04.429Z,1008.13
2016-11-03T02:43:45.111Z,1008.16
2016-11-03T02:44:25.821Z,1008.14
2016-11-03T02:45:06.489Z,1008.11
2016-11-03T02:45:47.140Z,1008.13
2016-11-03T02:46:27.818Z,1008.1
2016-11-03T02:47:08.457Z,1008.1
2016-11-03T02:47:49.121Z,1008.1
2016-11-03T02:48:29.810Z,1008.1
2016-11-03T02:49:10.479Z,1008.03
2016-11-03T02:49:51.133Z,1008.06
2016-11-03T02:50:31.852Z,1008.11
2016-11-03T02:51:12.557Z,1008.1
2016-11-03T02:51:53.244Z,1008.11
2016-11-03T02:52:33.904Z,1008.12
2016-11-03T02:53:14.602Z,1008.12
2016-11-03T02:53:55.234Z,1008.16
2016-11-03T02:54:35.966Z,1008.13
2016-11-03T02:55:16.669Z,1008.16
2016-11-03T02:55:57.321Z,1008.16
2016-11-03T02:56:38.001Z,1008.13
2016-11-03T02:57:18.663Z,1008.12
2016-11-03T02:57:59.316Z,1008.12
2016-11-03T02:58:40.030Z,1008.13
2016-11-03T02:59:20.702Z,1008.09
2016-11-03T03:00:01.400Z,1008.08
2016-11-03T03:00:42.073Z,1008.1
2016-11-03T03:01:22.771Z,1008.11
2016-11-03T03:02:03.432Z,1008.11
2016-11-03T03:02:44.062Z,1008.07
2016-11-03T03:03:24.726Z,1008.09
2016-11-03T03:04:05.414Z,1008.12
2016-11-03T03:04:46.057Z,1008.13
2016-11-03T03:05:26.757Z,1008.14
2016-11-03T03:06:07.416Z,1008.12
2016-11-03T03:06:48.138Z,1008.16
2016-11-03T03:07:28.767Z,1008.14
2016-11-03T03:08:09.463Z,1008.15
2016-11-03T03:08:50.145Z,1008.15
2016-11-03T03:09:30.835Z,1008.13
2016-11-03T03:10:11.528Z,1008.12
2016-11-03T03:10:52.192Z,1008.16
2016-11-03T03:11:32.874Z,1008.13
2016-11-03T03:12:13.569Z,1008.11
2016-11-03T03:12:54.272Z,1008.16
2016-11-03T03:13:34.936Z,1008.17
2016-11-03T03:14:15.603Z,1008.12
2016-11-03T03:14:56.241Z,1008.14
2016-11-03T03:15:36.950Z,1008.13
2016-11-03T03:16:17.601Z,1008.13
2016-11-03T03:16:58.293Z,1008.09
2016-11-03T03:17:39.012Z,1008.11
2016-11-03T03:18:19.676Z,1008.11
2016-11-03T03:19:00.379Z,1008.1
2016-11-03T03:19:41.068Z,1008.09
2016-11-03T03:20:21.763Z,1008.1
2016-11-03T03:21:02.434Z,1008.11
2016-11-03T03:21:43.116Z,1008.06
2016-11-03T03:22:23.776Z,1008.08
2016-11-03T03:23:04.472Z,1008.08
2016-11-03T03:23:45.130Z,1008.11
2016-11-03T03:24:25.832Z,1008.09
2016-11-03T03:25:06.493Z,1008.11
2016-11-03T03:25:47.214Z,1008.09
2016-11-03T03:26:27.885Z,1008.16
2016-11-03T03:27:08.570Z,1008.19
2016-11-03T03:27:49.251Z,1008.17
2016-11-03T03:28:29.939Z,1008.18
2016-11-03T03:29:10.628Z,1008.16
2016-11-03T03:29:51.323Z,1008.14
2016-11-03T03:30:32.046Z,1008.16
2016-11-03T03:31:12.755Z,1008.13
2016-11-03T03:31:53.439Z,1008.15
2016-11-03T03:32:34.140Z,1008.14
2016-11-03T03:33:14.827Z,1008.14
2016-11-03T03:33:55.523Z,1008.15
2016-11-03T03:34:36.213Z,1008.18
2016-11-03T03:35:16.894Z,1008.17
2016-11-03T03:35:57.557Z,1008.17
2016-11-03T03:36:38.196Z,1008.17
2016-11-03T03:37:18.900Z,1008.1
2016-11-03T03:37:59.652Z,1008.13
2016-11-03T03:38:40.301Z,1008.16
2016-11-03T03:39:20.948Z,1008.15
2016-11-03T03:40:01.602Z,1008.15
2016-11-03T03:40:42.291Z,1008.16
2016-11-03T03:41:22.995Z,1008.17
2016-11-03T03:42:03.673Z,1008.13
2016-11-03T03:42:44.358Z,1008.16
2016-11-03T03:43:25.022Z,1008.13
2016-11-03T03:44:05.691Z,1008.09
2016-11-03T03:44:46.364Z,1008.09
2016-11-03T03:45:27.035Z,1008.1
2016-11-03T03:46:07.732Z,1008.09
2016-11-03T03:46:48.375Z,1008.09
2016-11-03T03:47:29.061Z,1008.09
2016-11-03T03:48:09.714Z,1008.08
2016-11-03T03:48:50.362Z,1008.09
2016-11-03T03:49:31.040Z,1008.04
2016-11-03T03:50:11.689Z,1008.01
2016-11-03T03:50:52.393Z,1008
2016-11-03T03:51:33.078Z,1007.96
2016-11-03T03:52:13.788Z,1007.95
2016-11-03T03:52:54.492Z,1007.94
2016-11-03T03:53:35.233Z,1007.96
2016-11-03T03:54:15.941Z,1007.96
2016-11-03T03:54:56.655Z,1007.94
2016-11-03T03:55:37.320Z,1007.93
2016-11-03T03:56:18.008Z,1007.89
2016-11-03T03:56:58.669Z,1007.9
2016-11-03T03:57:39.334Z,1007.89
2016-11-03T03:58:20.035Z,1007.88
2016-11-03T03:59:00.710Z,1007.86
2016-11-03T03:59:41.366Z,1007.87
2016-11-03T04:00:22.066Z,1007.89
2016-11-03T04:01:02.740Z,1007.89
2016-11-03T04:01:43.425Z,1007.86
2016-11-03T04:02:24.148Z,1007.9
2016-11-03T04:03:04.821Z,1007.85
2016-11-03T04:03:45.525Z,1007.86
2016-11-03T04:04:26.226Z,1007.83
2016-11-03T04:05:06.876Z,1007.84
2016-11-03T04:05:47.576Z,1007.81
2016-11-03T04:06:28.247Z,1007.83
2016-11-03T04:07:08.894Z,1007.82
2016-11-03T04:07:49.635Z,1007.79
2016-11-03T04:08:30.304Z,1007.8
2016-11-03T04:09:11.020Z,1007.77
2016-11-03T04:09:51.678Z,1007.79
2016-11-03T04:10:32.359Z,1007.78
2016-11-03T04:11:12.995Z,1007.76
2016-11-03T04:11:54.469Z,1007.77
2016-11-03T04:12:35.163Z,1007.77
2016-11-03T04:13:15.871Z,1007.73
2016-11-03T04:13:56.524Z,1007.74
2016-11-03T04:14:37.180Z,1007.76
2016-11-03T04:15:17.883Z,1007.77
2016-11-03T04:15:58.524Z,1007.77
2016-11-03T04:16:39.188Z,1007.74
2016-11-03T04:17:19.895Z,1007.78
2016-11-03T04:18:00.565Z,1007.76
2016-11-03T04:18:41.253Z,1007.78
2016-11-03T04:19:21.902Z,1007.79
2016-11-03T04:20:02.622Z,1007.81
2016-11-03T04:20:43.336Z,1007.78
2016-11-03T04:21:24.057Z,1007.79
2016-11-03T04:22:04.766Z,1007.82
2016-11-03T04:22:45.413Z,1007.82
2016-11-03T04:23:26.056Z,1007.79
2016-11-03T04:24:06.758Z,1007.82
2016-11-03T04:24:47.430Z,1007.83
2016-11-03T04:25:28.109Z,1007.82
2016-11-03T04:26:08.748Z,1007.84
2016-11-03T04:26:49.446Z,1007.85
2016-11-03T04:27:30.072Z,1007.85
2016-11-03T04:28:10.748Z,1007.81
2016-11-03T04:28:51.450Z,1007.83
2016-11-03T04:29:32.144Z,1007.79
2016-11-03T04:30:12.846Z,1007.8
2016-11-03T04:30:53.582Z,1007.84
2016-11-03T04:31:34.232Z,1007.8
2016-11-03T04:32:14.909Z,1007.78
2016-11-03T04:32:55.625Z,1007.77
2016-11-03T04:33:36.320Z,1007.78
2016-11-03T04:34:16.995Z,1007.82
2016-11-03T04:34:57.683Z,1007.79
2016-11-03T04:35:38.328Z,1007.79
2016-11-03T04:36:18.998Z,1007.79
2016-11-03T04:36:59.639Z,1007.79
2016-11-03T04:37:40.316Z,1007.76
2016-11-03T04:38:20.985Z,1007.83
2016-11-03T04:39:01.698Z,1007.8
2016-11-03T04:39:42.414Z,1007.82
2016-11-03T04:40:23.110Z,1007.82
2016-11-03T04:41:03.756Z,1007.8
2016-11-03T04:41:44.424Z,1007.81
2016-11-03T04:42:25.100Z,1007.82
2016-11-03T04:43:05.742Z,1007.82
2016-11-03T04:43:46.441Z,1007.85
2016-11-03T04:44:27.186Z,1007.82
2016-11-03T04:45:07.846Z,1007.84
2016-11-03T04:45:48.548Z,1007.85
2016-11-03T04:46:29.255Z,1007.85
2016-11-03T04:47:09.944Z,1007.81
2016-11-03T04:47:50.608Z,1007.88
2016-11-03T04:48:31.281Z,1007.89
2016-11-03T04:49:11.982Z,1007.86
2016-11-03T04:49:52.621Z,1007.88
2016-11-03T04:50:33.340Z,1007.86
2016-11-03T04:51:13.989Z,1007.87
2016-11-03T04:51:54.660Z,1007.88
2016-11-03T04:52:35.351Z,1007.92
2016-11-03T04:53:16.033Z,1007.88
2016-11-03T04:53:56.702Z,1007.88
2016-11-03T04:54:37.420Z,1007.87
2016-11-03T04:55:18.092Z,1007.89
2016-11-03T04:55:58.750Z,1007.85
2016-11-03T04:56:39.444Z,1007.87
2016-11-03T04:57:20.091Z,1007.88
2016-11-03T04:58:00.757Z,1007.86
2016-11-03T04:58:41.453Z,1007.87
2016-11-03T04:59:22.103Z,1007.86
2016-11-03T05:00:02.806Z,1007.89
2016-11-03T05:00:43.455Z,1007.89
2016-11-03T05:01:24.135Z,1007.89
2016-11-03T05:02:04.809Z,1007.91
2016-11-03T05:02:45.501Z,1007.94
2016-11-03T05:03:26.169Z,1007.92
2016-11-03T05:04:06.887Z,1007.94
2016-11-03T05:04:47.586Z,1007.95
2016-11-03T05:05:28.280Z,1007.94
2016-11-03T05:06:08.995Z,1007.93
2016-11-03T05:06:49.676Z,1007.87
2016-11-03T05:07:30.333Z,1007.93
2016-11-03T05:08:11.032Z,1007.94
2016-11-03T05:08:51.742Z,1007.91
2016-11-03T05:09:32.434Z,1007.92
2016-11-03T05:10:13.105Z,1007.91
2016-11-03T05:10:53.750Z,1007.9
2016-11-03T05:11:34.450Z,1007.86
2016-11-03T05:12:15.144Z,1007.89
2016-11-03T05:12:55.835Z,1007.91
2016-11-03T05:13:36.506Z,1007.9
2016-11-03T05:14:17.171Z,1007.89
2016-11-03T05:14:57.809Z,1007.89
2016-11-03T05:15:38.484Z,1007.92
2016-11-03T05:16:19.149Z,1007.9
2016-11-03T05:16:59.849Z,1007.93
2016-11-03T05:17:40.521Z,1007.91
2016-11-03T05:18:21.203Z,1007.91
2016-11-03T05:19:01.901Z,1007.94
2016-11-03T05:19:42.578Z,1007.94
2016-11-03T05:20:23.279Z,1007.93
2016-11-03T05:21:04.010Z,1007.93
2016-11-03T05:21:44.668Z,1007.88
2016-11-03T05:22:25.387Z,1007.92
2016-11-03T05:23:06.073Z,1007.91
2016-11-03T05:23:46.715Z,1007.9
2016-11-03T05:24:27.447Z,1007.89
2016-11-03T05:25:08.136Z,1007.92
2016-11-03T05:25:48.821Z,1007.91
2016-11-03T05:26:29.487Z,1007.9
2016-11-03T05:27:10.209Z,1007.87
2016-11-03T05:27:50.901Z,1007.88
2016-11-03T05:28:31.612Z,1007.92
2016-11-03T05:29:12.307Z,1007.91
2016-11-03T05:29:53.030Z,1007.92
2016-11-03T05:30:33.709Z,1007.91
2016-11-03T05:31:14.445Z,1007.92
2016-11-03T05:31:55.123Z,1007.91
2016-11-03T05:32:35.846Z,1007.87
2016-11-03T05:33:16.525Z,1007.89
2016-11-03T05:33:57.196Z,1007.9
2016-11-03T05:34:37.878Z,1007.85
2016-11-03T05:35:18.568Z,1007.89
2016-11-03T05:35:59.215Z,1007.89
2016-11-03T05:36:39.898Z,1007.88
2016-11-03T05:37:20.570Z,1007.88
2016-11-03T05:38:01.283Z,1007.87
2016-11-03T05:38:41.970Z,1007.86
2016-11-03T05:39:22.716Z,1007.84
2016-11-03T05:40:03.433Z,1007.85
2016-11-03T05:40:44.100Z,1007.84
2016-11-03T05:41:24.787Z,1007.85
2016-11-03T05:42:05.446Z,1007.85
2016-11-03T05:42:46.162Z,1007.84
2016-11-03T05:43:26.811Z,1007.81
2016-11-03T05:44:07.503Z,1007.83
2016-11-03T05:44:48.154Z,1007.84
2016-11-03T05:45:28.872Z,1007.84
2016-11-03T05:46:09.571Z,1007.85
2016-11-03T05:46:50.288Z,1007.83
2016-11-03T05:47:30.987Z,1007.84
2016-11-03T05:48:11.632Z,1007.82
2016-11-03T05:48:52.359Z,1007.83
2016-11-03T05:49:33.029Z,1007.84
2016-11-03T05:50:13.684Z,1007.83
2016-11-03T05:50:54.404Z,1007.79
2016-11-03T05:51:35.110Z,1007.81
2016-11-03T05:52:15.844Z,1007.79
2016-11-03T05:52:56.556Z,1007.78
2016-11-03T05:53:37.234Z,1007.79
2016-11-03T05:54:17.901Z,1007.76
2016-11-03T05:54:58.585Z,1007.77
2016-11-03T05:55:39.273Z,1007.76
2016-11-03T05:56:19.943Z,1007.8
2016-11-03T05:57:00.657Z,1007.76
2016-11-03T05:57:41.312Z,1007.75
2016-11-03T05:58:21.991Z,1007.8
2016-11-03T05:59:02.683Z,1007.78
2016-11-03T05:59:43.370Z,1007.81
2016-11-03T06:00:24.066Z,1007.82
2016-11-03T06:01:04.743Z,1007.87
2016-11-03T06:01:45.418Z,1007.84
2016-11-03T06:02:26.092Z,1007.85
2016-11-03T06:03:06.803Z,1007.85
2016-11-03T06:03:47.495Z,1007.82
2016-11-03T06:04:28.198Z,1007.83
2016-11-03T06:05:08.879Z,1007.77
2016-11-03T06:05:49.592Z,1007.78
2016-11-03T06:06:30.238Z,1007.82
2016-11-03T06:07:10.891Z,1007.77
2016-11-03T06:07:51.552Z,1007.76
2016-11-03T06:08:32.288Z,1007.74
2016-11-03T06:09:12.920Z,1007.77
2016-11-03T06:09:53.823Z,1007.76
2016-11-03T06:10:34.336Z,1007.75
2016-11-03T06:11:15.007Z,1007.75
2016-11-03T06:11:55.700Z,1007.76
2016-11-03T06:12:36.387Z,1007.74
2016-11-03T06:13:17.042Z,1007.79
2016-11-03T06:13:57.742Z,1007.76
2016-11-03T06:14:38.458Z,1007.73
2016-11-03T06:15:19.136Z,1007.73
2016-11-03T06:15:59.818Z,1007.76
2016-11-03T06:16:40.524Z,1007.75
2016-11-03T06:17:21.213Z,1007.7
2016-11-03T06:18:01.896Z,1007.76
2016-11-03T06:18:42.602Z,1007.72
2016-11-03T06:19:23.261Z,1007.68
2016-11-03T06:20:03.926Z,1007.68
2016-11-03T06:20:44.559Z,1007.73
2016-11-03T06:21:25.188Z,1007.71
2016-11-03T06:22:05.892Z,1007.69
2016-11-03T06:22:46.563Z,1007.68
2016-11-03T06:23:27.245Z,1007.68
2016-11-03T06:24:07.919Z,1007.71
2016-11-03T06:24:48.662Z,1007.69
2016-11-03T06:25:29.306Z,1007.71
2016-11-03T06:26:09.977Z,1007.76
2016-11-03T06:26:50.657Z,1007.73
2016-11-03T06:27:31.312Z,1007.72
2016-11-03T06:28:11.987Z,1007.75
2016-11-03T06:28:52.703Z,1007.77
2016-11-03T06:29:33.367Z,1007.78
2016-11-03T06:30:14.128Z,1007.81
2016-11-03T06:30:54.840Z,1007.84
2016-11-03T06:31:35.509Z,1007.84
2016-11-03T06:32:16.216Z,1007.83
2016-11-03T06:32:56.892Z,1007.82
2016-11-03T06:33:37.570Z,1007.87
2016-11-03T06:34:18.214Z,1007.85
2016-11-03T06:34:58.909Z,1007.81
2016-11-03T06:35:39.576Z,1007.85
2016-11-03T06:36:20.211Z,1007.83
2016-11-03T06:37:00.901Z,1007.83
2016-11-03T06:37:41.582Z,1007.84
2016-11-03T06:38:22.286Z,1007.83
2016-11-03T06:39:03.013Z,1007.8
2016-11-03T06:39:43.691Z,1007.79
2016-11-03T06:40:24.401Z,1007.82
2016-11-03T06:41:05.067Z,1007.83
2016-11-03T06:41:45.747Z,1007.79
2016-11-03T06:42:26.427Z,1007.84
2016-11-03T06:43:07.087Z,1007.81
2016-11-03T06:43:47.799Z,1007.81
2016-11-03T06:44:28.463Z,1007.81
2016-11-03T06:45:09.163Z,1007.82
2016-11-03T06:45:49.803Z,1007.87
2016-11-03T06:46:30.468Z,1007.89
2016-11-03T06:47:11.120Z,1007.85
2016-11-03T06:47:51.792Z,1007.84
2016-11-03T06:48:32.443Z,1007.86
2016-11-03T06:49:13.076Z,1007.86
2016-11-03T06:49:53.780Z,1007.88
2016-11-03T06:50:34.438Z,1007.86
2016-11-03T06:51:15.129Z,1007.85
2016-11-03T06:51:55.847Z,1007.84
2016-11-03T06:52:36.528Z,1007.83
2016-11-03T06:53:17.253Z,1007.84
2016-11-03T06:53:57.957Z,1007.87
2016-11-03T06:54:38.651Z,1007.82
2016-11-03T06:55:19.339Z,1007.81
2016-11-03T06:56:00.027Z,1007.85
2016-11-03T06:56:40.704Z,1007.85
2016-11-03T06:57:21.373Z,1007.85
2016-11-03T06:58:02.052Z,1007.88
2016-11-03T06:58:42.730Z,1007.88
2016-11-03T06:59:23.414Z,1007.85
2016-11-03T07:00:04.067Z,1007.84
2016-11-03T07:00:44.770Z,1007.86
2016-11-03T07:01:25.438Z,1007.88
2016-11-03T07:02:06.283Z,1007.9
2016-11-03T07:02:46.957Z,1007.9
2016-11-03T07:03:27.624Z,1007.89
2016-11-03T07:04:08.334Z,1007.89
2016-11-03T07:04:49.002Z,1007.89
2016-11-03T07:05:29.762Z,1007.9
2016-11-03T07:06:10.423Z,1007.88
2016-11-03T07:06:51.113Z,1007.95
2016-11-03T07:07:31.826Z,1007.94
2016-11-03T07:08:12.479Z,1007.95
2016-11-03T07:08:53.187Z,1007.91
2016-11-03T07:09:33.862Z,1007.91
2016-11-03T07:10:14.531Z,1007.93
2016-11-03T07:10:55.240Z,1007.92
2016-11-03T07:11:35.930Z,1007.91
2016-11-03T07:12:16.619Z,1007.94
2016-11-03T07:12:57.321Z,1007.93
2016-11-03T07:13:37.962Z,1007.95
2016-11-03T07:14:18.625Z,1007.94
2016-11-03T07:14:59.293Z,1007.93
2016-11-03T07:15:39.974Z,1007.92
2016-11-03T07:16:20.654Z,1007.95
2016-11-03T07:17:01.324Z,1007.93
2016-11-03T07:17:42.033Z,1007.97
2016-11-03T07:18:22.706Z,1007.96
2016-11-03T07:19:03.441Z,1007.97
2016-11-03T07:19:44.129Z,1008.02
2016-11-03T07:20:24.809Z,1008.02
2016-11-03T07:21:05.578Z,1008.03
2016-11-03T07:21:46.245Z,1008.07
2016-11-03T07:22:26.960Z,1008.06
2016-11-03T07:23:07.697Z,1008.04
2016-11-03T07:23:48.361Z,1008.1
2016-11-03T07:24:29.049Z,1008.11
2016-11-03T07:25:09.715Z,1008.15
2016-11-03T07:25:50.455Z,1008.14
2016-11-03T07:26:31.140Z,1008.17
2016-11-03T07:27:11.834Z,1008.18
2016-11-03T07:27:52.507Z,1008.19
2016-11-03T07:28:33.185Z,1008.2
2016-11-03T07:29:13.894Z,1008.21
2016-11-03T07:29:54.585Z,1008.2
2016-11-03T07:30:35.243Z,1008.2
2016-11-03T07:31:15.949Z,1008.2
2016-11-03T07:31:56.828Z,1008.15
2016-11-03T07:32:37.371Z,1008.16
2016-11-03T07:33:18.050Z,1008.15
2016-11-03T07:33:58.793Z,1008.14
2016-11-03T07:34:39.482Z,1008.14
2016-11-03T07:35:20.168Z,1008.15
2016-11-03T07:36:00.837Z,1008.14
2016-11-03T07:36:41.490Z,1008.14
2016-11-03T07:37:22.167Z,1008.16
2016-11-03T07:38:02.827Z,1008.2
2016-11-03T07:38:43.551Z,1008.17
2016-11-03T07:39:24.253Z,1008.21
2016-11-03T07:40:04.993Z,1008.24
2016-11-03T07:40:45.645Z,1008.23
2016-11-03T07:41:26.343Z,1008.25
2016-11-03T07:42:07.069Z,1008.26
2016-11-03T07:42:47.743Z,1008.26
2016-11-03T07:43:28.469Z,1008.3
2016-11-03T07:44:09.182Z,1008.28
2016-11-03T07:44:49.869Z,1008.32
2016-11-03T07:45:30.547Z,1008.34
2016-11-03T07:46:11.265Z,1008.36
2016-11-03T07:46:51.943Z,1008.41
2016-11-03T07:47:32.641Z,1008.36
2016-11-03T07:48:13.327Z,1008.37
2016-11-03T07:48:54.009Z,1008.38
2016-11-03T07:49:34.717Z,1008.35
2016-11-03T07:50:15.395Z,1008.35
2016-11-03T07:50:56.064Z,1008.35
2016-11-03T07:51:36.775Z,1008.34
2016-11-03T07:52:17.434Z,1008.31
2016-11-03T07:52:58.182Z,1008.33
2016-11-03T07:53:38.874Z,1008.36
2016-11-03T07:54:19.571Z,1008.35
2016-11-03T07:55:00.188Z,1008.38
2016-11-03T07:55:40.873Z,1008.41
2016-11-03T07:56:21.561Z,1008.41
2016-11-03T07:57:02.284Z,1008.42
2016-11-03T07:57:42.947Z,1008.43
2016-11-03T07:58:23.662Z,1008.41
2016-11-03T07:59:04.374Z,1008.44
2016-11-03T07:59:45.066Z,1008.46
2016-11-03T08:00:25.785Z,1008.45
2016-11-03T08:01:06.485Z,1008.49
2016-11-03T08:01:47.201Z,1008.46
2016-11-03T08:02:27.984Z,1008.5
2016-11-03T08:03:08.616Z,1008.5
2016-11-03T08:03:49.344Z,1008.5
2016-11-03T08:04:30.997Z,1008.53
2016-11-03T08:05:10.736Z,1008.52
2016-11-03T08:05:51.407Z,1008.55
2016-11-03T08:06:32.074Z,1008.51
2016-11-03T08:07:12.748Z,1008.56
2016-11-03T08:07:53.411Z,1008.54
2016-11-03T08:08:34.083Z,1008.57
2016-11-03T08:09:14.819Z,1008.57
2016-11-03T08:09:55.492Z,1008.57
2016-11-03T08:10:36.232Z,1008.52
2016-11-03T08:11:16.927Z,1008.54
2016-11-03T08:11:57.680Z,1008.6
2016-11-03T08:12:38.435Z,1008.58
2016-11-03T08:13:19.171Z,1008.57
2016-11-03T08:13:59.871Z,1008.59